createdAt,value
2018-06-04T00:00:49.607Z,1005.4
2018-06-04T00:01:51.327Z,1005.4
2018-06-04T00:02:52.944Z,1005.4
2018-06-04T00:03:54.566Z,1005.3
2018-06-04T00:04:57.209Z,1005.4
2018-06-04T00:05:58.828Z,1005.3
2018-06-04T00:07:00.444Z,1005.3
2018-06-04T00:08:02.644Z,1005.3
2018-06-04T00:09:05.249Z,1005.3
2018-06-04T00:10:07.001Z,1005.3
2018-06-04T00:11:09.089Z,1005.3
2018-06-04T00:12:11.130Z,1005.3
2018-06-04T00:13:12.768Z,1005.3
2018-06-04T00:14:15.042Z,1005.2
2018-06-04T00:15:16.861Z,1005.3
2018-06-04T00:16:18.480Z,1005.3
2018-06-04T00:17:20.466Z,1005.3
2018-06-04T00:18:22.948Z,1005.3
2018-06-04T00:19:25.086Z,1005.3
2018-06-04T00:20:26.718Z,1005.3
2018-06-04T00:21:29.009Z,1005.3
2018-06-04T00:22:32.180Z,1005.3
2018-06-04T00:23:33.801Z,1005.3
2018-06-04T00:24:35.416Z,1005.3
2018-06-04T00:25:37.707Z,1005.3
2018-06-04T00:26:40.717Z,1005.2
2018-06-04T00:27:43.695Z,1005.2
2018-06-04T00:28:45.988Z,1005.2
2018-06-04T00:29:48.247Z,1005.2
2018-06-04T00:30:50.776Z,1005.2
2018-06-04T00:31:52.633Z,1005.2
2018-06-04T00:32:54.397Z,1005.2
2018-06-04T00:33:56.457Z,1005.2
2018-06-04T00:34:58.479Z,1005.2
2018-06-04T00:36:00.458Z,1005.1
2018-06-04T00:37:02.067Z,1005.2
2018-06-04T00:38:03.687Z,1005.2
2018-06-04T00:39:05.299Z,1005.2
2018-06-04T00:40:06.927Z,1005.2
2018-06-04T00:41:08.532Z,1005.2
2018-06-04T00:42:10.153Z,1005.2
2018-06-04T00:43:11.763Z,1005.2
2018-06-04T00:44:13.384Z,1005.2
2018-06-04T00:45:15.003Z,1005.2
2018-06-04T00:46:16.618Z,1005.2
2018-06-04T00:47:18.234Z,1005.2
2018-06-04T00:48:19.853Z,1005.2
2018-06-04T00:49:21.465Z,1005.2
2018-06-04T00:50:23.086Z,1005.2
2018-06-04T00:51:24.696Z,1005.2
2018-06-04T00:52:26.320Z,1005.1
2018-06-04T00:53:27.933Z,1005.2
2018-06-04T00:54:29.551Z,1005.2
2018-06-04T00:55:31.165Z,1005.1
2018-06-04T00:56:32.784Z,1005.1
2018-06-04T00:57:34.396Z,1005.1
2018-06-04T00:58:36.012Z,1005.1
2018-06-04T00:59:37.626Z,1005.1
2018-06-04T01:00:39.242Z,1005.1
2018-06-04T01:01:40.859Z,1005.1
2018-06-04T01:02:42.476Z,1005.1
2018-06-04T01:03:44.089Z,1005.1
2018-06-04T01:04:45.703Z,1005.1
2018-06-04T01:05:47.324Z,1005.0
2018-06-04T01:06:48.942Z,1005.1
2018-06-04T01:07:50.558Z,1005.1
2018-06-04T01:08:52.180Z,1005.1
2018-06-04T01:09:53.791Z,1005.1
2018-06-04T01:10:55.407Z,1005.1
2018-06-04T01:11:57.027Z,1005.0
2018-06-04T01:12:58.642Z,1005.1
2018-06-04T01:14:00.255Z,1005.1
2018-06-04T01:15:01.870Z,1005.1
2018-06-04T01:16:03.485Z,1005.1
2018-06-04T01:17:05.097Z,1005.1
2018-06-04T01:18:06.714Z,1005.0
2018-06-04T01:19:08.335Z,1005.1
2018-06-04T01:20:09.950Z,1005.0
2018-06-04T01:21:11.571Z,1005.1
2018-06-04T01:22:13.183Z,1005.0
2018-06-04T01:23:14.799Z,1005.0
2018-06-04T01:24:19.241Z,1005.0
2018-06-04T01:25:20.856Z,1005.0
2018-06-04T01:26:22.469Z,1005.0
2018-06-04T01:27:24.087Z,1005.0
2018-06-04T01:28:25.707Z,1005.0
2018-06-04T01:29:27.323Z,1005.0
2018-06-04T01:30:28.944Z,1005.0
2018-06-04T01:31:30.560Z,1005.0
2018-06-04T01:32:32.171Z,1005.0
2018-06-04T01:33:33.787Z,1005.0
2018-06-04T01:34:35.410Z,1005.1
2018-06-04T01:35:37.019Z,1005.1
2018-06-04T01:36:38.637Z,1005.1
2018-06-04T01:37:40.253Z,1005.1
2018-06-04T01:38:41.875Z,1005.0
2018-06-04T01:39:43.488Z,1004.9
2018-06-04T01:40:45.107Z,1004.9
2018-06-04T01:41:46.721Z,1004.9
2018-06-04T01:42:48.343Z,1004.9
2018-06-04T01:43:49.955Z,1004.8
2018-06-04T01:44:51.575Z,1004.9
2018-06-04T01:45:53.188Z,1004.9
2018-06-04T01:46:54.800Z,1004.9
2018-06-04T01:47:56.424Z,1004.9
2018-06-04T01:48:58.032Z,1004.9
2018-06-04T01:49:59.652Z,1004.8
2018-06-04T01:51:01.266Z,1004.8
2018-06-04T01:52:02.883Z,1004.8
2018-06-04T01:53:04.493Z,1004.7
2018-06-04T01:54:06.109Z,1004.7
2018-06-04T01:55:07.727Z,1004.7
2018-06-04T01:56:09.340Z,1004.7
2018-06-04T01:57:10.962Z,1004.8
2018-06-04T01:58:12.573Z,1004.8
2018-06-04T01:59:14.192Z,1004.8
2018-06-04T02:00:15.805Z,1004.8
2018-06-04T02:01:17.419Z,1004.8
2018-06-04T02:02:19.032Z,1004.8
2018-06-04T02:03:20.653Z,1004.8
2018-06-04T02:04:22.274Z,1004.7
2018-06-04T02:05:23.886Z,1004.7
2018-06-04T02:06:25.498Z,1004.7
2018-06-04T02:07:27.116Z,1004.7
2018-06-04T02:08:28.728Z,1004.7
2018-06-04T02:09:30.353Z,1004.7
2018-06-04T02:10:31.966Z,1004.8
2018-06-04T02:11:33.580Z,1004.8
2018-06-04T02:12:35.198Z,1004.7
2018-06-04T02:13:36.817Z,1004.7
2018-06-04T02:14:38.437Z,1004.7
2018-06-04T02:15:40.046Z,1004.7
2018-06-04T02:16:41.660Z,1004.7
2018-06-04T02:17:43.280Z,1004.7
2018-06-04T02:18:44.897Z,1004.7
2018-06-04T02:19:46.513Z,1004.7
2018-06-04T02:20:48.133Z,1004.7
2018-06-04T02:21:49.745Z,1004.7
2018-06-04T02:22:51.373Z,1004.7
2018-06-04T02:23:52.977Z,1004.7
2018-06-04T02:24:54.599Z,1004.7
2018-06-04T02:25:56.212Z,1004.7
2018-06-04T02:26:57.829Z,1004.7
2018-06-04T02:27:59.450Z,1004.6
2018-06-04T02:29:01.074Z,1004.6
2018-06-04T02:30:02.683Z,1004.6
2018-06-04T02:31:04.290Z,1004.6
2018-06-04T02:32:05.912Z,1004.6
2018-06-04T02:33:07.521Z,1004.6
2018-06-04T02:34:09.143Z,1004.6
2018-06-04T02:35:10.760Z,1004.6
2018-06-04T02:36:12.381Z,1004.6
2018-06-04T02:37:13.995Z,1004.6
2018-06-04T02:38:15.605Z,1004.6
2018-06-04T02:39:17.225Z,1004.5
2018-06-04T02:40:19.655Z,1004.5
2018-06-04T02:41:21.266Z,1004.5
2018-06-04T02:42:22.889Z,1004.5
2018-06-04T02:43:24.500Z,1004.6
2018-06-04T02:44:26.120Z,1004.6
2018-06-04T02:45:27.738Z,1004.6
2018-06-04T02:46:29.353Z,1004.6
2018-06-04T02:47:30.968Z,1004.6
2018-06-04T02:48:32.589Z,1004.6
2018-06-04T02:49:34.210Z,1004.6
2018-06-04T02:50:35.822Z,1004.6
2018-06-04T02:51:37.438Z,1004.7
2018-06-04T02:52:39.052Z,1004.6
2018-06-04T02:53:40.676Z,1004.6
2018-06-04T02:54:42.292Z,1004.6
2018-06-04T02:55:43.908Z,1004.6
2018-06-04T02:56:45.525Z,1004.7
2018-06-04T02:57:47.140Z,1004.7
2018-06-04T02:58:48.762Z,1004.6
2018-06-04T02:59:50.384Z,1004.7
2018-06-04T03:00:51.994Z,1004.7
2018-06-04T03:01:53.616Z,1004.6
2018-06-04T03:02:55.230Z,1004.7
2018-06-04T03:03:57.417Z,1004.7
2018-06-04T03:04:59.036Z,1004.7
2018-06-04T03:06:01.243Z,1004.7
2018-06-04T03:07:02.857Z,1004.7
2018-06-04T03:08:04.474Z,1004.7
2018-06-04T03:09:06.096Z,1004.6
2018-06-04T03:10:07.718Z,1004.6
2018-06-04T03:11:09.336Z,1004.6
2018-06-04T03:12:10.947Z,1004.5
2018-06-04T03:13:12.572Z,1004.5
2018-06-04T03:14:14.188Z,1004.5
2018-06-04T03:15:15.819Z,1004.5
2018-06-04T03:16:17.424Z,1004.5
2018-06-04T03:17:19.050Z,1004.5
2018-06-04T03:18:20.666Z,1004.5
2018-06-04T03:19:22.290Z,1004.5
2018-06-04T03:20:23.906Z,1004.5
2018-06-04T03:21:25.527Z,1004.5
2018-06-04T03:22:27.144Z,1004.5
2018-06-04T03:23:28.768Z,1004.4
2018-06-04T03:24:30.390Z,1004.4
2018-06-04T03:25:32.005Z,1004.5
2018-06-04T03:26:33.628Z,1004.4
2018-06-04T03:27:35.242Z,1004.4
2018-06-04T03:28:36.864Z,1004.4
2018-06-04T03:29:38.482Z,1004.4
2018-06-04T03:30:40.104Z,1004.4
2018-06-04T03:31:41.724Z,1004.5
2018-06-04T03:32:43.348Z,1004.5
2018-06-04T03:33:44.960Z,1004.5
2018-06-04T03:34:46.606Z,1004.5
2018-06-04T03:35:48.200Z,1004.5
2018-06-04T03:36:49.820Z,1004.5
2018-06-04T03:37:51.436Z,1004.5
2018-06-04T03:38:53.062Z,1004.6
2018-06-04T03:39:54.679Z,1004.5
2018-06-04T03:40:56.297Z,1004.5
2018-06-04T03:41:57.921Z,1004.5
2018-06-04T03:42:59.536Z,1004.5
2018-06-04T03:44:01.158Z,1004.5
2018-06-04T03:45:02.776Z,1004.5
2018-06-04T03:46:04.400Z,1004.6
2018-06-04T03:47:06.020Z,1004.5
2018-06-04T03:48:07.641Z,1004.5
2018-06-04T03:49:09.272Z,1004.5
2018-06-04T03:50:10.877Z,1004.5
2018-06-04T03:51:12.492Z,1004.5
2018-06-04T03:52:14.114Z,1004.5
2018-06-04T03:53:15.735Z,1004.4
2018-06-04T03:54:17.356Z,1004.4
2018-06-04T03:55:18.974Z,1004.4
2018-06-04T03:56:20.598Z,1004.4
2018-06-04T03:57:22.213Z,1004.4
2018-06-04T03:58:23.839Z,1004.4
2018-06-04T03:59:25.516Z,1004.4
2018-06-04T04:00:27.082Z,1004.4
2018-06-04T04:01:28.702Z,1004.4
2018-06-04T04:02:30.325Z,1004.3
2018-06-04T04:03:31.944Z,1004.3
2018-06-04T04:04:33.560Z,1004.3
2018-06-04T04:05:35.188Z,1004.3
2018-06-04T04:06:36.805Z,1004.3
2018-06-04T04:07:38.428Z,1004.3
2018-06-04T04:08:40.051Z,1004.3
2018-06-04T04:09:41.678Z,1004.3
2018-06-04T04:10:43.295Z,1004.3
2018-06-04T04:11:44.907Z,1004.3
2018-06-04T04:12:46.534Z,1004.3
2018-06-04T04:13:48.158Z,1004.3
2018-06-04T04:14:49.781Z,1004.3
2018-06-04T04:15:51.404Z,1004.3
2018-06-04T04:16:53.026Z,1004.3
2018-06-04T04:17:54.645Z,1004.3
2018-06-04T04:18:56.267Z,1004.3
2018-06-04T04:19:57.888Z,1004.3
2018-06-04T04:20:59.513Z,1004.3
2018-06-04T04:22:01.131Z,1004.3
2018-06-04T04:23:02.757Z,1004.2
2018-06-04T04:24:04.383Z,1004.2
2018-06-04T04:25:05.998Z,1004.2
2018-06-04T04:26:07.618Z,1004.2
2018-06-04T04:27:09.244Z,1004.2
2018-06-04T04:28:10.869Z,1004.2
2018-06-04T04:29:12.488Z,1004.2
2018-06-04T04:30:14.111Z,1004.3
2018-06-04T04:31:15.733Z,1004.3
2018-06-04T04:32:17.351Z,1004.3
2018-06-04T04:33:18.977Z,1004.3
2018-06-04T04:34:20.598Z,1004.3
2018-06-04T04:35:22.223Z,1004.3
2018-06-04T04:36:23.849Z,1004.3
2018-06-04T04:37:25.472Z,1004.3
2018-06-04T04:38:27.093Z,1004.3
2018-06-04T04:39:28.710Z,1004.3
2018-06-04T04:40:30.336Z,1004.3
2018-06-04T04:41:31.953Z,1004.3
2018-06-04T04:42:33.577Z,1004.3
2018-06-04T04:43:35.198Z,1004.3
2018-06-04T04:44:36.826Z,1004.3
2018-06-04T04:45:38.444Z,1004.2
2018-06-04T04:46:40.069Z,1004.2
2018-06-04T04:47:41.689Z,1004.3
2018-06-04T04:48:43.346Z,1004.3
2018-06-04T04:49:44.936Z,1004.3
2018-06-04T04:50:46.554Z,1004.3
2018-06-04T04:51:48.176Z,1004.3
2018-06-04T04:52:49.800Z,1004.3
2018-06-04T04:53:51.420Z,1004.3
2018-06-04T04:54:53.045Z,1004.3
2018-06-04T04:55:54.664Z,1004.3
2018-06-04T04:56:56.285Z,1004.3
2018-06-04T04:57:57.911Z,1004.3
2018-06-04T04:58:59.538Z,1004.3
2018-06-04T05:00:01.159Z,1004.3
2018-06-04T05:01:02.780Z,1004.3
2018-06-04T05:02:04.404Z,1004.3
2018-06-04T05:03:06.024Z,1004.3
2018-06-04T05:04:07.643Z,1004.2
2018-06-04T05:05:09.262Z,1004.3
2018-06-04T05:06:10.885Z,1004.3
2018-06-04T05:07:12.512Z,1004.3
2018-06-04T05:08:14.134Z,1004.2
2018-06-04T05:09:15.756Z,1004.3
2018-06-04T05:10:17.377Z,1004.2
2018-06-04T05:11:19.000Z,1004.2
2018-06-04T05:12:20.626Z,1004.2
2018-06-04T05:13:22.250Z,1004.2
2018-06-04T05:14:23.868Z,1004.2
2018-06-04T05:15:25.487Z,1004.2
2018-06-04T05:16:27.111Z,1004.2
2018-06-04T05:17:28.735Z,1004.2
2018-06-04T05:18:30.353Z,1004.2
2018-06-04T05:19:31.986Z,1004.2
2018-06-04T05:20:33.605Z,1004.2
2018-06-04T05:21:35.224Z,1004.2
2018-06-04T05:22:36.858Z,1004.2
2018-06-04T05:23:38.465Z,1004.2
2018-06-04T05:24:40.093Z,1004.1
2018-06-04T05:25:41.717Z,1004.1
2018-06-04T05:26:43.345Z,1004.2
2018-06-04T05:27:44.965Z,1004.2
2018-06-04T05:28:46.589Z,1004.2
2018-06-04T05:29:48.207Z,1004.2
2018-06-04T05:30:49.835Z,1004.2
2018-06-04T05:31:51.511Z,1004.2
2018-06-04T05:32:53.079Z,1004.1
2018-06-04T05:33:54.700Z,1004.2
2018-06-04T05:34:56.328Z,1004.2
2018-06-04T05:35:57.948Z,1004.2
2018-06-04T05:36:59.575Z,1004.2
2018-06-04T05:38:01.310Z,1004.2
2018-06-04T05:39:03.149Z,1004.2
2018-06-04T05:40:04.786Z,1004.2
2018-06-04T05:41:06.404Z,1004.2
2018-06-04T05:42:08.030Z,1004.2
2018-06-04T05:43:09.657Z,1004.2
2018-06-04T05:44:11.274Z,1004.2
2018-06-04T05:45:12.900Z,1004.2
2018-06-04T05:46:14.520Z,1004.2
2018-06-04T05:47:16.148Z,1004.2
2018-06-04T05:48:17.766Z,1004.2
2018-06-04T05:49:19.395Z,1004.3
2018-06-04T05:50:21.016Z,1004.2
2018-06-04T05:51:22.637Z,1004.3
2018-06-04T05:52:24.253Z,1004.2
2018-06-04T05:53:25.881Z,1004.2
2018-06-04T05:54:27.507Z,1004.2
2018-06-04T05:55:29.128Z,1004.2
2018-06-04T05:56:30.761Z,1004.2
2018-06-04T05:57:32.383Z,1004.2
2018-06-04T05:58:34.008Z,1004.2
2018-06-04T05:59:35.628Z,1004.2
2018-06-04T06:00:37.253Z,1004.2
2018-06-04T06:01:38.878Z,1004.2
2018-06-04T06:02:40.506Z,1004.2
2018-06-04T06:03:42.127Z,1004.2
2018-06-04T06:04:43.743Z,1004.2
2018-06-04T06:05:45.369Z,1004.2
2018-06-04T06:06:46.997Z,1004.2
2018-06-04T06:07:48.614Z,1004.1
2018-06-04T06:08:50.238Z,1004.2
2018-06-04T06:09:51.866Z,1004.2
2018-06-04T06:10:53.496Z,1004.2
2018-06-04T06:11:55.110Z,1004.3
2018-06-04T06:12:56.731Z,1004.3
2018-06-04T06:13:58.360Z,1004.3
2018-06-04T06:14:59.989Z,1004.4
2018-06-04T06:16:01.618Z,1004.3
2018-06-04T06:17:03.240Z,1004.4
2018-06-04T06:18:04.873Z,1004.4
2018-06-04T06:19:06.496Z,1004.4
2018-06-04T06:20:08.118Z,1004.4
2018-06-04T06:21:09.742Z,1004.4
2018-06-04T06:22:11.372Z,1004.3
2018-06-04T06:23:12.996Z,1004.4
2018-06-04T06:24:14.619Z,1004.3
2018-06-04T06:25:16.260Z,1004.4
2018-06-04T06:26:17.869Z,1004.3
2018-06-04T06:27:19.497Z,1004.4
2018-06-04T06:28:21.120Z,1004.3
2018-06-04T06:29:22.753Z,1004.3
2018-06-04T06:30:24.377Z,1004.3
2018-06-04T06:31:26.006Z,1004.3
2018-06-04T06:32:27.631Z,1004.3
2018-06-04T06:33:29.260Z,1004.3
2018-06-04T06:34:30.884Z,1004.3
2018-06-04T06:35:32.515Z,1004.3
2018-06-04T06:36:34.141Z,1004.4
2018-06-04T06:37:35.796Z,1004.3
2018-06-04T06:38:37.402Z,1004.3
2018-06-04T06:39:39.028Z,1004.3
2018-06-04T06:40:40.667Z,1004.3
2018-06-04T06:41:42.292Z,1004.3
2018-06-04T06:42:43.923Z,1004.3
2018-06-04T06:43:45.558Z,1004.3
2018-06-04T06:44:47.183Z,1004.3
2018-06-04T06:45:48.816Z,1004.3
2018-06-04T06:46:50.450Z,1004.3
2018-06-04T06:47:52.075Z,1004.4
2018-06-04T06:48:53.704Z,1004.4
2018-06-04T06:49:55.334Z,1004.4
2018-06-04T06:50:56.971Z,1004.4
2018-06-04T06:51:58.603Z,1004.4
2018-06-04T06:53:00.235Z,1004.4
2018-06-04T06:54:01.874Z,1004.4
2018-06-04T06:55:03.501Z,1004.4
2018-06-04T06:56:05.132Z,1004.5
2018-06-04T06:57:06.767Z,1004.4
2018-06-04T06:58:08.404Z,1004.4
2018-06-04T06:59:10.036Z,1004.3
2018-06-04T07:00:11.668Z,1004.3
2018-06-04T07:01:13.311Z,1004.3
2018-06-04T07:02:14.943Z,1004.3
2018-06-04T07:03:16.573Z,1004.4
2018-06-04T07:04:18.207Z,1004.4
2018-06-04T07:05:19.845Z,1004.4
2018-06-04T07:06:21.478Z,1004.4
2018-06-04T07:07:23.119Z,1004.4
2018-06-04T07:08:24.756Z,1004.4
2018-06-04T07:09:26.385Z,1004.4
2018-06-04T07:10:28.014Z,1004.4
2018-06-04T07:11:29.655Z,1004.5
2018-06-04T07:12:31.291Z,1004.4
2018-06-04T07:13:32.925Z,1004.5
2018-06-04T07:14:34.581Z,1004.4
2018-06-04T07:15:36.200Z,1004.4
2018-06-04T07:16:37.835Z,1004.4
2018-06-04T07:17:39.468Z,1004.4
2018-06-04T07:18:41.105Z,1004.4
2018-06-04T07:19:42.739Z,1004.4
2018-06-04T07:20:44.381Z,1004.4
2018-06-04T07:21:46.016Z,1004.4
2018-06-04T07:22:47.650Z,1004.4
2018-06-04T07:23:49.292Z,1004.4
2018-06-04T07:24:50.929Z,1004.4
2018-06-04T07:25:52.562Z,1004.5
2018-06-04T07:26:54.198Z,1004.4
2018-06-04T07:27:55.836Z,1004.4
2018-06-04T07:28:57.479Z,1004.4
2018-06-04T07:29:59.115Z,1004.4
2018-06-04T07:31:00.745Z,1004.4
2018-06-04T07:32:02.386Z,1004.4
2018-06-04T07:33:04.020Z,1004.4
2018-06-04T07:34:05.663Z,1004.4
2018-06-04T07:35:07.299Z,1004.4
2018-06-04T07:36:08.940Z,1004.4
2018-06-04T07:37:10.580Z,1004.4
2018-06-04T07:38:12.215Z,1004.4
2018-06-04T07:39:13.854Z,1004.4
2018-06-04T07:40:15.498Z,1004.4
2018-06-04T07:41:17.167Z,1004.4
2018-06-04T07:42:18.763Z,1004.4
2018-06-04T07:43:20.400Z,1004.4
2018-06-04T07:44:22.090Z,1004.3
2018-06-04T07:45:23.678Z,1004.3
2018-06-04T07:46:25.323Z,1004.3
2018-06-04T07:47:26.954Z,1004.3
2018-06-04T07:48:28.594Z,1004.3
2018-06-04T07:49:30.233Z,1004.3
2018-06-04T07:50:31.870Z,1004.3
2018-06-04T07:51:33.508Z,1004.3
2018-06-04T07:52:35.147Z,1004.3
2018-06-04T07:53:36.780Z,1004.3
2018-06-04T07:54:38.420Z,1004.3
2018-06-04T07:55:40.055Z,1004.3
2018-06-04T07:56:41.704Z,1004.3
2018-06-04T07:57:43.343Z,1004.3
2018-06-04T07:58:44.980Z,1004.3
2018-06-04T07:59:46.622Z,1004.3
2018-06-04T08:00:48.265Z,1004.3
2018-06-04T08:01:49.893Z,1004.3
2018-06-04T08:02:51.536Z,1004.3
2018-06-04T08:03:53.173Z,1004.3
2018-06-04T08:04:54.814Z,1004.3
2018-06-04T08:05:56.455Z,1004.2
2018-06-04T08:06:58.094Z,1004.3
2018-06-04T08:07:59.731Z,1004.3
2018-06-04T08:09:01.369Z,1004.3
2018-06-04T08:10:03.049Z,1004.2
2018-06-04T08:11:04.654Z,1004.2
2018-06-04T08:12:06.293Z,1004.2
2018-06-04T08:13:07.937Z,1004.2
2018-06-04T08:14:09.575Z,1004.2
2018-06-04T08:15:11.209Z,1004.2
2018-06-04T08:16:12.847Z,1004.2
2018-06-04T08:17:14.490Z,1004.2
2018-06-04T08:18:16.137Z,1004.3
2018-06-04T08:19:17.769Z,1004.2
2018-06-04T08:20:19.422Z,1004.2
2018-06-04T08:21:21.053Z,1004.2
2018-06-04T08:22:22.699Z,1004.2
2018-06-04T08:23:24.335Z,1004.1
2018-06-04T08:24:25.980Z,1004.2
2018-06-04T08:25:27.626Z,1004.1
2018-06-04T08:26:29.269Z,1004.1
2018-06-04T08:27:30.905Z,1004.1
2018-06-04T08:28:32.547Z,1004.1
2018-06-04T08:29:34.186Z,1004.1
2018-06-04T08:30:35.828Z,1004.0
2018-06-04T08:31:37.469Z,1004.1
2018-06-04T08:32:39.117Z,1004.1
2018-06-04T08:33:40.756Z,1004.1
2018-06-04T08:34:42.403Z,1004.1
2018-06-04T08:35:44.035Z,1004.1
2018-06-04T08:36:45.674Z,1004.1
2018-06-04T08:37:47.317Z,1004.1
2018-06-04T08:38:48.979Z,1004.1
2018-06-04T08:39:50.603Z,1004.1
2018-06-04T08:40:52.254Z,1004.0
2018-06-04T08:41:53.893Z,1004.0
2018-06-04T08:42:55.533Z,1004.0
2018-06-04T08:43:57.171Z,1004.0
2018-06-04T08:44:58.822Z,1004.0
2018-06-04T08:46:00.471Z,1004.0
2018-06-04T08:47:02.108Z,1004.0
2018-06-04T08:48:03.755Z,1004.0
2018-06-04T08:49:05.398Z,1004.0
2018-06-04T08:50:07.045Z,1004.0
2018-06-04T08:51:08.681Z,1004.0
2018-06-04T08:52:10.334Z,1004.0
2018-06-04T08:53:11.976Z,1004.0
2018-06-04T08:54:13.616Z,1004.0
2018-06-04T08:55:15.259Z,1003.9
2018-06-04T08:56:16.910Z,1003.9
2018-06-04T08:57:18.550Z,1004.0
2018-06-04T08:58:20.193Z,1003.9
2018-06-04T08:59:21.840Z,1003.8
2018-06-04T09:00:23.487Z,1003.8
2018-06-04T09:01:25.125Z,1004.0
2018-06-04T09:02:26.772Z,1004.0
2018-06-04T09:03:28.423Z,1004.0
2018-06-04T09:04:30.055Z,1004.0
2018-06-04T09:05:31.696Z,1004.0
2018-06-04T09:06:33.343Z,1003.9
2018-06-04T09:07:34.986Z,1003.9
2018-06-04T09:08:36.629Z,1004.0
2018-06-04T09:09:38.271Z,1003.9
2018-06-04T09:10:39.912Z,1003.9
2018-06-04T09:11:41.559Z,1004.0
2018-06-04T09:12:43.196Z,1003.9
2018-06-04T09:13:44.841Z,1003.9
2018-06-04T09:14:46.485Z,1003.9
2018-06-04T09:15:48.146Z,1003.9
2018-06-04T09:16:49.769Z,1003.9
2018-06-04T09:17:51.410Z,1004.0
2018-06-04T09:18:53.060Z,1004.0
2018-06-04T09:19:54.704Z,1003.9
2018-06-04T09:20:56.341Z,1003.8
2018-06-04T09:21:57.991Z,1003.9
2018-06-04T09:22:59.627Z,1003.7
2018-06-04T09:24:01.271Z,1003.8
2018-06-04T09:25:02.920Z,1003.8
2018-06-04T09:26:04.560Z,1003.8
2018-06-04T09:27:06.195Z,1003.8
2018-06-04T09:28:07.837Z,1003.8
2018-06-04T09:29:09.487Z,1003.8
2018-06-04T09:30:11.130Z,1003.8
2018-06-04T09:31:12.778Z,1003.8
2018-06-04T09:32:14.477Z,1003.8
2018-06-04T09:33:16.066Z,1003.8
2018-06-04T09:34:17.719Z,1003.8
2018-06-04T09:35:19.352Z,1003.8
2018-06-04T09:36:20.999Z,1003.8
2018-06-04T09:37:22.639Z,1003.8
2018-06-04T09:38:24.294Z,1003.8
2018-06-04T09:39:25.936Z,1003.8
2018-06-04T09:40:27.581Z,1003.8
2018-06-04T09:41:29.221Z,1003.8
2018-06-04T09:42:30.867Z,1003.8
2018-06-04T09:43:32.515Z,1003.8
2018-06-04T09:44:34.163Z,1003.8
2018-06-04T09:45:35.814Z,1003.7
2018-06-04T09:46:37.453Z,1003.8
2018-06-04T09:47:39.099Z,1003.7
2018-06-04T09:48:40.750Z,1003.6
2018-06-04T09:49:42.394Z,1003.8
2018-06-04T09:50:44.038Z,1003.8
2018-06-04T09:51:45.685Z,1003.7
2018-06-04T09:52:47.326Z,1003.6
2018-06-04T09:53:48.992Z,1003.6
2018-06-04T09:54:50.636Z,1003.6
2018-06-04T09:55:52.278Z,1003.6
2018-06-04T09:56:53.917Z,1003.6
2018-06-04T09:57:55.565Z,1003.8
2018-06-04T09:58:57.212Z,1003.8
2018-06-04T09:59:58.857Z,1003.7
2018-06-04T10:01:00.498Z,1003.7
2018-06-04T10:02:02.146Z,1003.6
2018-06-04T10:03:03.784Z,1003.6
2018-06-04T10:04:05.428Z,1003.6
2018-06-04T10:05:07.070Z,1003.7
2018-06-04T10:06:08.709Z,1003.7
2018-06-04T10:07:10.352Z,1003.7
2018-06-04T10:08:11.999Z,1003.7
2018-06-04T10:09:13.643Z,1003.7
2018-06-04T10:10:15.287Z,1003.7
2018-06-04T10:11:16.927Z,1003.7
2018-06-04T10:12:18.575Z,1003.7
2018-06-04T10:13:20.218Z,1003.7
2018-06-04T10:14:21.857Z,1003.7
2018-06-04T10:15:23.501Z,1003.7
2018-06-04T10:16:25.147Z,1003.7
2018-06-04T10:17:26.787Z,1003.7
2018-06-04T10:18:28.430Z,1003.8
2018-06-04T10:19:30.072Z,1003.7
2018-06-04T10:20:31.721Z,1003.8
2018-06-04T10:21:33.365Z,1003.7
2018-06-04T10:22:35.045Z,1003.7
2018-06-04T10:23:36.659Z,1003.7
2018-06-04T10:24:38.296Z,1003.5
2018-06-04T10:25:39.941Z,1003.5
2018-06-04T10:26:41.582Z,1003.5
2018-06-04T10:27:43.227Z,1003.5
2018-06-04T10:28:44.877Z,1003.7
2018-06-04T10:29:46.513Z,1003.7
2018-06-04T10:30:48.160Z,1003.7
2018-06-04T10:31:49.796Z,1003.6
2018-06-04T10:32:51.446Z,1003.7
2018-06-04T10:33:53.086Z,1003.7
2018-06-04T10:34:54.723Z,1003.5
2018-06-04T10:35:56.373Z,1003.5
2018-06-04T10:36:58.017Z,1003.5
2018-06-04T10:37:59.654Z,1003.7
2018-06-04T10:39:01.297Z,1003.6
2018-06-04T10:40:02.930Z,1003.7
2018-06-04T10:41:04.576Z,1003.6
2018-06-04T10:42:06.227Z,1003.5
2018-06-04T10:43:07.872Z,1003.5
2018-06-04T10:44:09.510Z,1003.5
2018-06-04T10:45:11.147Z,1003.7
2018-06-04T10:46:12.783Z,1003.6
2018-06-04T10:47:14.429Z,1003.7
2018-06-04T10:48:16.071Z,1003.6
2018-06-04T10:49:17.712Z,1003.6
2018-06-04T10:50:19.352Z,1003.7
2018-06-04T10:51:20.996Z,1003.7
2018-06-04T10:52:22.637Z,1003.6
2018-06-04T10:53:24.276Z,1003.6
2018-06-04T10:54:25.913Z,1003.6
2018-06-04T10:55:27.560Z,1003.6
2018-06-04T10:56:29.198Z,1003.7
2018-06-04T10:57:30.879Z,1003.6
2018-06-04T10:58:32.491Z,1003.6
2018-06-04T10:59:34.127Z,1003.7
2018-06-04T11:00:35.769Z,1003.6
2018-06-04T11:01:37.413Z,1003.7
2018-06-04T11:02:39.059Z,1003.7
2018-06-04T11:03:40.699Z,1003.7
2018-06-04T11:04:42.343Z,1003.7
2018-06-04T11:05:43.985Z,1003.7
2018-06-04T11:06:45.631Z,1003.6
2018-06-04T11:07:47.269Z,1003.6
2018-06-04T11:08:48.920Z,1003.6
2018-06-04T11:09:50.560Z,1003.6
2018-06-04T11:10:52.206Z,1003.6
2018-06-04T11:11:53.850Z,1003.6
2018-06-04T11:12:55.493Z,1003.6
2018-06-04T11:13:57.137Z,1003.6
2018-06-04T11:14:58.781Z,1003.6
2018-06-04T11:16:00.422Z,1003.6
2018-06-04T11:17:02.065Z,1003.5
2018-06-04T11:18:03.712Z,1003.4
2018-06-04T11:19:05.357Z,1003.4
2018-06-04T11:20:06.999Z,1003.4
2018-06-04T11:21:08.648Z,1003.3
2018-06-04T11:22:10.287Z,1003.4
2018-06-04T11:23:11.935Z,1003.4
2018-06-04T11:24:13.571Z,1003.3
2018-06-04T11:25:15.209Z,1003.3
2018-06-04T11:26:16.851Z,1003.4
2018-06-04T11:27:18.489Z,1003.4
2018-06-04T11:28:20.134Z,1003.3
2018-06-04T11:29:21.774Z,1003.4
2018-06-04T11:30:23.413Z,1003.4
2018-06-04T11:31:25.049Z,1003.5
2018-06-04T11:32:26.689Z,1003.5
2018-06-04T11:33:28.330Z,1003.5
2018-06-04T11:34:29.973Z,1003.5
2018-06-04T11:35:31.609Z,1003.5
2018-06-04T11:36:33.252Z,1003.5
2018-06-04T11:37:34.936Z,1003.5
2018-06-04T11:38:36.532Z,1003.5
2018-06-04T11:39:38.177Z,1003.5
2018-06-04T11:40:39.819Z,1003.5
2018-06-04T11:41:41.467Z,1003.5
2018-06-04T11:42:43.105Z,1003.4
2018-06-04T11:43:44.742Z,1003.3
2018-06-04T11:44:46.387Z,1003.4
2018-06-04T11:45:48.025Z,1003.3
2018-06-04T11:46:49.670Z,1003.3
2018-06-04T11:47:51.315Z,1003.3
2018-06-04T11:48:52.952Z,1003.3
2018-06-04T11:49:54.595Z,1003.3
2018-06-04T11:50:56.233Z,1003.4
2018-06-04T11:51:57.869Z,1003.2
2018-06-04T11:52:59.513Z,1003.3
2018-06-04T11:54:01.156Z,1003.2
2018-06-04T11:55:02.799Z,1003.2
2018-06-04T11:56:04.701Z,1003.2
2018-06-04T11:57:06.333Z,1003.2
2018-06-04T11:58:07.968Z,1003.2
2018-06-04T11:59:09.617Z,1003.2
2018-06-04T12:00:11.261Z,1003.2
2018-06-04T12:01:12.895Z,1003.2
2018-06-04T12:02:14.531Z,1003.4
2018-06-04T12:03:16.176Z,1003.4
2018-06-04T12:04:17.812Z,1003.4
2018-06-04T12:05:19.448Z,1003.4
2018-06-04T12:06:21.088Z,1003.4
2018-06-04T12:07:22.727Z,1003.4
2018-06-04T12:08:24.366Z,1003.4
2018-06-04T12:09:26.003Z,1003.4
2018-06-04T12:10:27.638Z,1003.4
2018-06-04T12:11:29.300Z,1003.4
2018-06-04T12:12:30.924Z,1003.3
2018-06-04T12:13:32.562Z,1003.4
2018-06-04T12:14:34.200Z,1003.4
2018-06-04T12:15:35.842Z,1003.5
2018-06-04T12:16:37.483Z,1003.4
2018-06-04T12:17:39.122Z,1003.5
2018-06-04T12:18:40.760Z,1003.6
2018-06-04T12:19:42.401Z,1003.5
2018-06-04T12:20:44.047Z,1003.5
2018-06-04T12:21:45.681Z,1003.5
2018-06-04T12:22:47.316Z,1003.4
2018-06-04T12:23:48.964Z,1003.4
2018-06-04T12:24:50.606Z,1003.4
2018-06-04T12:25:52.243Z,1003.4
2018-06-04T12:26:53.886Z,1003.2
2018-06-04T12:27:55.523Z,1003.2
2018-06-04T12:28:57.169Z,1003.2
2018-06-04T12:29:58.813Z,1003.1
2018-06-04T12:31:00.454Z,1003.1
2018-06-04T12:32:02.096Z,1003.1
2018-06-04T12:33:03.734Z,1003.1
2018-06-04T12:34:05.374Z,1003.1
2018-06-04T12:35:07.009Z,1003.1
2018-06-04T12:36:08.653Z,1003.1
2018-06-04T12:37:10.286Z,1003.1
2018-06-04T12:38:11.931Z,1003.1
2018-06-04T12:39:13.567Z,1003.1
2018-06-04T12:40:15.206Z,1003.1
2018-06-04T12:41:16.839Z,1003.2
2018-06-04T12:42:18.480Z,1003.2
2018-06-04T12:43:20.116Z,1003.2
2018-06-04T12:44:21.750Z,1003.2
2018-06-04T12:45:23.387Z,1003.2
2018-06-04T12:46:25.033Z,1003.2
2018-06-04T12:47:26.668Z,1003.2
2018-06-04T12:48:28.306Z,1003.2
2018-06-04T12:49:29.947Z,1003.1